createdAt,value
2019-03-29T00:00:58.940Z,1029.74
2019-03-29T00:01:58.008Z,1029.73
2019-03-29T00:02:58.086Z,1029.76
2019-03-29T00:03:58.113Z,1029.75
2019-03-29T00:04:58.101Z,1029.77
2019-03-29T00:05:58.154Z,1029.76
2019-03-29T00:06:58.211Z,1029.74
2019-03-29T00:07:58.539Z,1029.78
2019-03-29T00:08:58.272Z,1029.80
2019-03-29T00:09:58.256Z,1029.78
2019-03-29T00:10:58.300Z,1029.81
2019-03-29T00:11:58.319Z,1029.84
2019-03-29T00:12:58.352Z,1029.84
2019-03-29T00:13:58.435Z,1029.87
2019-03-29T00:14:58.717Z,1029.88
2019-03-29T00:15:59.289Z,1029.87
2019-03-29T00:16:58.473Z,1029.94
2019-03-29T00:17:58.506Z,1029.89
2019-03-29T00:18:58.590Z,1029.92
2019-03-29T00:20:58.659Z,1029.96
2019-03-29T00:21:58.939Z,1029.95
2019-03-29T00:22:58.668Z,1029.97
2019-03-29T00:24:06.710Z,1029.94
2019-03-29T00:24:58.761Z,1029.98
2019-03-29T00:25:59.069Z,1029.93
2019-03-29T00:26:58.855Z,1029.92
2019-03-29T00:27:58.872Z,1029.90
2019-03-29T00:28:59.156Z,1029.91
2019-03-29T00:29:58.888Z,1029.85
2019-03-29T00:30:58.943Z,1029.88
2019-03-29T00:31:59.004Z,1029.93
2019-03-29T00:32:58.980Z,1029.94
2019-03-29T00:33:59.065Z,1029.88
2019-03-29T00:34:59.098Z,1029.91
2019-03-29T00:35:59.879Z,1029.86
2019-03-29T00:37:59.183Z,1029.83
2019-03-29T00:38:59.175Z,1029.82
2019-03-29T00:39:59.253Z,1029.81
2019-03-29T00:40:59.256Z,1029.84
2019-03-29T00:41:59.321Z,1029.81
2019-03-29T00:42:59.597Z,1029.82
2019-03-29T00:43:59.325Z,1029.78
2019-03-29T00:44:59.408Z,1029.78
2019-03-29T00:45:59.437Z,1029.77
2019-03-29T00:46:59.472Z,1029.74
2019-03-29T00:47:59.449Z,1029.77
2019-03-29T00:48:59.486Z,1029.73
2019-03-29T00:49:59.863Z,1029.71
2019-03-29T00:50:59.600Z,1029.72
2019-03-29T00:51:59.593Z,1029.69
2019-03-29T00:53:59.644Z,1029.65
2019-03-29T00:54:59.723Z,1029.60
2019-03-29T00:55:59.756Z,1029.63
2019-03-29T00:57:00.039Z,1029.61
2019-03-29T00:57:59.766Z,1029.62
2019-03-29T00:58:59.798Z,1029.63
2019-03-29T00:59:59.884Z,1029.61
2019-03-29T01:01:00.292Z,1029.61
2019-03-29T01:01:59.905Z,1029.64
2019-03-29T01:02:59.991Z,1029.62
2019-03-29T01:04:00.312Z,1029.60
2019-03-29T01:05:00.043Z,1029.54
2019-03-29T01:06:00.071Z,1029.54
2019-03-29T01:07:00.113Z,1029.55
2019-03-29T01:08:07.756Z,1029.53
2019-03-29T01:09:00.131Z,1029.51
2019-03-29T01:10:00.298Z,1029.52
2019-03-29T01:11:00.478Z,1029.50
2019-03-29T01:12:00.254Z,1029.45
2019-03-29T01:13:00.296Z,1029.45
2019-03-29T01:14:00.275Z,1029.45
2019-03-29T01:15:00.375Z,1029.44
2019-03-29T01:16:01.147Z,1029.43
2019-03-29T01:17:00.376Z,1029.43
2019-03-29T01:18:00.698Z,1029.44
2019-03-29T01:19:00.477Z,1029.42
2019-03-29T01:20:00.556Z,1029.44
2019-03-29T01:21:00.490Z,1029.42
2019-03-29T01:22:00.572Z,1029.41
2019-03-29T01:23:00.609Z,1029.42
2019-03-29T01:24:00.588Z,1029.39
2019-03-29T01:25:00.923Z,1029.36
2019-03-29T01:26:01.172Z,1029.37
2019-03-29T01:27:00.731Z,1029.33
2019-03-29T01:28:00.762Z,1029.37
2019-03-29T01:29:00.799Z,1029.36
2019-03-29T01:30:00.775Z,1029.37
2019-03-29T01:31:01.106Z,1029.37
2019-03-29T01:32:00.943Z,1029.34
2019-03-29T01:33:00.872Z,1029.30
2019-03-29T01:34:00.903Z,1029.32
2019-03-29T01:35:00.996Z,1029.31
2019-03-29T01:36:01.316Z,1029.29
2019-03-29T01:37:01.293Z,1029.30
2019-03-29T01:38:01.135Z,1029.35
2019-03-29T01:39:01.099Z,1029.36
2019-03-29T01:40:01.095Z,1029.31
2019-03-29T01:41:01.332Z,1029.32
2019-03-29T01:42:01.144Z,1029.32
2019-03-29T01:43:01.483Z,1029.28
2019-03-29T01:44:01.883Z,1029.28
2019-03-29T01:45:01.256Z,1029.26
2019-03-29T01:47:01.413Z,1029.23
2019-03-29T01:48:01.390Z,1029.25
2019-03-29T01:49:01.370Z,1029.24
2019-03-29T01:50:01.729Z,1029.26
2019-03-29T01:51:02.038Z,1029.27
2019-03-29T01:52:01.465Z,1029.19
2019-03-29T01:53:01.550Z,1029.21
2019-03-29T01:54:01.584Z,1029.21
2019-03-29T01:55:01.605Z,1029.21
2019-03-29T01:56:01.585Z,1029.16
2019-03-29T01:57:01.919Z,1029.16
2019-03-29T01:58:01.703Z,1029.12
2019-03-29T01:59:01.733Z,1029.08
2019-03-29T02:00:01.712Z,1029.09
2019-03-29T02:01:02.286Z,1029.08
2019-03-29T02:02:01.779Z,1029.07
2019-03-29T02:03:01.806Z,1029.05
2019-03-29T02:04:05.510Z,1029.01
2019-03-29T02:05:01.914Z,1029.00
2019-03-29T02:06:01.900Z,1029.01
2019-03-29T02:07:01.934Z,1028.98
2019-03-29T02:08:01.966Z,1029.00
2019-03-29T02:09:02.047Z,1028.97
2019-03-29T02:10:02.025Z,1028.99
2019-03-29T02:11:02.414Z,1028.97
2019-03-29T02:12:02.091Z,1028.96
2019-03-29T02:13:02.171Z,1028.96
2019-03-29T02:14:02.203Z,1028.99
2019-03-29T02:15:02.241Z,1028.97
2019-03-29T02:16:02.216Z,1028.99
2019-03-29T02:17:02.248Z,1028.99
2019-03-29T02:18:02.633Z,1028.98
2019-03-29T02:19:02.372Z,1028.96
2019-03-29T02:20:02.395Z,1028.96
2019-03-29T02:21:02.418Z,1028.93
2019-03-29T02:22:02.397Z,1028.93
2019-03-29T02:23:03.962Z,1028.90
2019-03-29T02:24:02.460Z,1028.91
2019-03-29T02:25:02.791Z,1028.89
2019-03-29T02:26:02.535Z,1028.90
2019-03-29T02:27:02.628Z,1028.86
2019-03-29T02:28:02.640Z,1028.86
2019-03-29T02:29:02.663Z,1028.84
2019-03-29T02:30:04.270Z,1028.85
2019-03-29T02:31:02.737Z,1028.85
2019-03-29T02:32:03.019Z,1028.90
2019-03-29T02:33:02.799Z,1028.85
2019-03-29T02:34:02.795Z,1028.82
2019-03-29T02:35:02.808Z,1028.79
2019-03-29T02:36:02.838Z,1028.80
2019-03-29T02:38:02.954Z,1028.77
2019-03-29T02:39:03.284Z,1028.75
2019-03-29T02:40:02.965Z,1028.78
2019-03-29T02:41:03.059Z,1028.77
2019-03-29T02:42:03.077Z,1028.73
2019-03-29T02:43:03.063Z,1028.71
2019-03-29T02:44:03.141Z,1028.75
2019-03-29T02:45:03.620Z,1028.73
2019-03-29T02:47:03.539Z,1028.74
2019-03-29T02:48:03.258Z,1028.74
2019-03-29T02:49:03.254Z,1028.75
2019-03-29T02:50:03.283Z,1028.69
2019-03-29T02:51:04.396Z,1028.73
2019-03-29T02:52:03.361Z,1028.74
2019-03-29T02:53:03.420Z,1028.68
2019-03-29T02:54:03.698Z,1028.72
2019-03-29T02:55:03.502Z,1028.72
2019-03-29T02:56:03.462Z,1028.69
2019-03-29T02:57:03.512Z,1028.66
2019-03-29T02:58:03.570Z,1028.71
2019-03-29T02:59:03.628Z,1028.74
2019-03-29T03:00:03.602Z,1028.73
2019-03-29T03:01:03.919Z,1028.77
2019-03-29T03:02:03.675Z,1028.78
2019-03-29T03:03:03.743Z,1028.74
2019-03-29T03:04:03.770Z,1028.75
2019-03-29T03:05:03.740Z,1028.72
2019-03-29T03:07:03.853Z,1028.71
2019-03-29T03:08:04.128Z,1028.68
2019-03-29T03:09:12.939Z,1028.73
2019-03-29T03:10:03.901Z,1028.69
2019-03-29T03:12:03.964Z,1028.71
2019-03-29T03:13:03.992Z,1028.72
2019-03-29T03:15:04.103Z,1028.65
2019-03-29T03:16:04.441Z,1028.68
2019-03-29T03:17:04.120Z,1028.72
2019-03-29T03:18:04.199Z,1028.67
2019-03-29T03:19:04.229Z,1028.65
2019-03-29T03:20:04.260Z,1028.65
2019-03-29T03:21:04.254Z,1028.65
2019-03-29T03:22:04.284Z,1028.65
2019-03-29T03:23:04.653Z,1028.63
2019-03-29T03:24:04.326Z,1028.62
2019-03-29T03:25:04.407Z,1028.63
2019-03-29T03:26:04.445Z,1028.67
2019-03-29T03:27:04.481Z,1028.68
2019-03-29T03:28:04.462Z,1028.66
2019-03-29T03:29:04.499Z,1028.70
2019-03-29T03:30:04.883Z,1028.70
2019-03-29T03:31:04.607Z,1028.69
2019-03-29T03:32:04.597Z,1028.67
2019-03-29T03:33:04.615Z,1028.68
2019-03-29T03:34:04.693Z,1028.69
2019-03-29T03:35:04.670Z,1028.66
2019-03-29T03:36:04.756Z,1028.64
2019-03-29T03:37:05.032Z,1028.64
2019-03-29T03:39:04.852Z,1028.68
2019-03-29T03:40:04.894Z,1028.65
2019-03-29T03:41:04.854Z,1028.65
2019-03-29T03:42:04.905Z,1028.64
2019-03-29T03:43:04.970Z,1028.67
2019-03-29T03:44:05.299Z,1028.67
2019-03-29T03:45:05.033Z,1028.65
2019-03-29T03:46:05.022Z,1028.66
2019-03-29T03:47:05.104Z,1028.68
2019-03-29T03:48:05.127Z,1028.68
2019-03-29T03:49:05.118Z,1028.67
2019-03-29T03:50:05.136Z,1028.66
2019-03-29T03:51:05.219Z,1028.65
2019-03-29T03:52:05.251Z,1028.70
2019-03-29T03:53:05.278Z,1028.68
2019-03-29T03:54:05.261Z,1028.69
2019-03-29T03:55:05.342Z,1028.67
2019-03-29T03:56:05.338Z,1028.70
2019-03-29T03:57:05.663Z,1028.72
2019-03-29T03:58:05.390Z,1028.73
2019-03-29T03:59:05.463Z,1028.72
2019-03-29T04:00:05.455Z,1028.71
2019-03-29T04:01:05.485Z,1028.72
2019-03-29T04:02:05.565Z,1028.71
2019-03-29T04:03:05.869Z,1028.73
2019-03-29T04:04:05.586Z,1028.74
2019-03-29T04:05:05.667Z,1028.73
2019-03-29T04:06:05.635Z,1028.75
2019-03-29T04:07:05.670Z,1028.69
2019-03-29T04:08:05.702Z,1028.74
2019-03-29T04:09:06.080Z,1028.71
2019-03-29T04:10:05.810Z,1028.73
2019-03-29T04:11:05.852Z,1028.72
2019-03-29T04:12:05.827Z,1028.74
2019-03-29T04:13:05.902Z,1028.69
2019-03-29T04:14:05.938Z,1028.67
2019-03-29T04:15:06.220Z,1028.71
2019-03-29T04:16:05.950Z,1028.70
2019-03-29T04:17:06.024Z,1028.68
2019-03-29T04:18:06.016Z,1028.65
2019-03-29T04:19:06.090Z,1028.67
2019-03-29T04:20:06.078Z,1028.71
2019-03-29T04:21:06.151Z,1028.67
2019-03-29T04:22:06.431Z,1028.67
2019-03-29T04:23:06.212Z,1028.65
2019-03-29T04:24:06.203Z,1028.64
2019-03-29T04:25:06.335Z,1028.66
2019-03-29T04:26:06.254Z,1028.68
2019-03-29T04:27:06.331Z,1028.65
2019-03-29T04:28:06.315Z,1028.63
2019-03-29T04:29:06.706Z,1028.63
2019-03-29T04:30:06.442Z,1028.69
2019-03-29T04:31:06.405Z,1028.71
2019-03-29T04:32:06.487Z,1028.68
2019-03-29T04:33:10.808Z,1028.68
2019-03-29T04:34:06.694Z,1028.70
2019-03-29T04:35:06.534Z,1028.68
2019-03-29T04:36:06.973Z,1028.65
2019-03-29T04:37:06.605Z,1028.64
2019-03-29T04:38:06.764Z,1028.66
2019-03-29T04:39:06.725Z,1028.65
2019-03-29T04:40:08.716Z,1028.62
2019-03-29T04:41:06.718Z,1028.63
2019-03-29T04:42:06.823Z,1028.61
2019-03-29T04:44:07.163Z,1028.62
2019-03-29T04:45:06.906Z,1028.62
2019-03-29T04:46:06.919Z,1028.62
2019-03-29T04:47:06.918Z,1028.61
2019-03-29T04:48:07.145Z,1028.61
2019-03-29T04:49:07.160Z,1028.61
2019-03-29T04:50:06.995Z,1028.59
2019-03-29T04:51:07.332Z,1028.64
2019-03-29T04:52:07.058Z,1028.58
2019-03-29T04:53:07.141Z,1028.62
2019-03-29T04:54:07.118Z,1028.64
2019-03-29T04:55:07.155Z,1028.61
2019-03-29T04:56:07.188Z,1028.59
2019-03-29T04:57:07.265Z,1028.60
2019-03-29T04:58:07.540Z,1028.60
2019-03-29T04:59:07.331Z,1028.62
2019-03-29T05:00:07.299Z,1028.60
2019-03-29T05:01:07.341Z,1028.57
2019-03-29T05:02:07.412Z,1028.57
2019-03-29T05:03:07.405Z,1028.57
2019-03-29T05:04:07.478Z,1028.60
2019-03-29T05:05:07.807Z,1028.60
2019-03-29T05:06:07.495Z,1028.60
2019-03-29T05:07:07.578Z,1028.60
2019-03-29T05:08:07.599Z,1028.61
2019-03-29T05:09:07.582Z,1028.61
2019-03-29T05:10:20.564Z,1028.59
2019-03-29T05:11:07.694Z,1028.61
2019-03-29T05:12:08.032Z,1028.65
2019-03-29T05:13:07.705Z,1028.66
2019-03-29T05:14:07.738Z,1028.61
2019-03-29T05:15:07.814Z,1028.65
2019-03-29T05:16:07.844Z,1028.66
2019-03-29T05:17:07.881Z,1028.63
2019-03-29T05:18:07.860Z,1028.64
2019-03-29T05:19:08.239Z,1028.64
2019-03-29T05:20:07.929Z,1028.61
2019-03-29T05:21:07.955Z,1028.57
2019-03-29T05:22:08.036Z,1028.57
2019-03-29T05:23:08.071Z,1028.57
2019-03-29T05:24:08.052Z,1028.59
2019-03-29T05:25:08.075Z,1028.55
2019-03-29T05:26:08.404Z,1028.55
2019-03-29T05:27:08.198Z,1028.56
2019-03-29T05:28:08.222Z,1028.55
2019-03-29T05:29:08.195Z,1028.58
2019-03-29T05:30:08.283Z,1028.57
2019-03-29T05:31:08.315Z,1028.59
2019-03-29T05:32:08.335Z,1028.59
2019-03-29T05:33:08.375Z,1028.56
2019-03-29T05:34:08.355Z,1028.61
2019-03-29T05:35:08.446Z,1028.61
2019-03-29T05:36:08.418Z,1028.57
2019-03-29T05:37:08.496Z,1028.56
2019-03-29T05:38:08.533Z,1028.56
2019-03-29T05:39:08.811Z,1028.57
2019-03-29T05:40:08.539Z,1028.54
2019-03-29T05:41:08.618Z,1028.55
2019-03-29T05:42:08.605Z,1028.55
2019-03-29T05:43:08.678Z,1028.54
2019-03-29T05:44:08.677Z,1028.53
2019-03-29T05:45:09.043Z,1028.52
2019-03-29T05:46:08.795Z,1028.49
2019-03-29T05:47:08.804Z,1028.52
2019-03-29T05:48:08.788Z,1028.48
2019-03-29T05:49:08.866Z,1028.44
2019-03-29T05:50:08.849Z,1028.51
2019-03-29T05:51:09.232Z,1028.49
2019-03-29T05:52:08.918Z,1028.49
2019-03-29T05:53:08.940Z,1028.51
2019-03-29T05:54:09.029Z,1028.48
2019-03-29T05:55:09.001Z,1028.49
2019-03-29T05:56:09.038Z,1028.45
2019-03-29T05:57:09.381Z,1028.50
2019-03-29T05:58:09.143Z,1028.51
2019-03-29T05:59:09.218Z,1028.50
2019-03-29T06:00:09.175Z,1028.46
2019-03-29T06:01:09.244Z,1028.54
2019-03-29T06:02:09.220Z,1028.53
2019-03-29T06:03:10.172Z,1028.56
2019-03-29T06:04:09.582Z,1028.55
2019-03-29T06:05:09.364Z,1028.56
2019-03-29T06:06:09.344Z,1028.54
2019-03-29T06:07:09.390Z,1028.55
2019-03-29T06:08:09.447Z,1028.56
2019-03-29T06:09:09.433Z,1028.52
2019-03-29T06:10:09.523Z,1028.51
2019-03-29T06:11:09.854Z,1028.54
2019-03-29T06:12:09.583Z,1028.55
2019-03-29T06:13:09.572Z,1028.53
2019-03-29T06:14:09.606Z,1028.52
2019-03-29T06:15:09.668Z,1028.53
2019-03-29T06:16:09.695Z,1028.55
2019-03-29T06:17:09.681Z,1028.54
2019-03-29T06:18:10.066Z,1028.55
2019-03-29T06:19:09.762Z,1028.56
2019-03-29T06:20:09.785Z,1028.57
2019-03-29T06:21:09.807Z,1028.56
2019-03-29T06:22:09.893Z,1028.55
2019-03-29T06:23:09.868Z,1028.56
2019-03-29T06:24:09.894Z,1028.57
2019-03-29T06:25:10.277Z,1028.59
2019-03-29T06:26:09.964Z,1028.57
2019-03-29T06:27:10.036Z,1028.59
2019-03-29T06:28:10.065Z,1028.59
2019-03-29T06:29:10.098Z,1028.58
2019-03-29T06:30:10.133Z,1028.58
2019-03-29T06:31:10.159Z,1028.59
2019-03-29T06:32:10.510Z,1028.57
2019-03-29T06:33:10.181Z,1028.57
2019-03-29T06:34:10.218Z,1028.59
2019-03-29T06:35:10.288Z,1028.57
2019-03-29T06:36:10.282Z,1028.56
2019-03-29T06:37:10.346Z,1028.57
2019-03-29T06:38:10.333Z,1028.57
2019-03-29T06:39:10.666Z,1028.56
2019-03-29T06:40:10.435Z,1028.51
2019-03-29T06:41:10.493Z,1028.54
2019-03-29T06:42:10.452Z,1028.52
2019-03-29T06:43:10.562Z,1028.55
2019-03-29T06:44:10.578Z,1028.54
2019-03-29T06:45:10.598Z,1028.56
2019-03-29T06:46:10.924Z,1028.57
2019-03-29T06:47:10.659Z,1028.56
2019-03-29T06:48:10.636Z,1028.57
2019-03-29T06:49:10.670Z,1028.57
2019-03-29T06:50:13.876Z,1028.61
2019-03-29T06:51:10.775Z,1028.59
2019-03-29T06:52:10.763Z,1028.60
2019-03-29T06:53:11.106Z,1028.64
2019-03-29T06:54:10.821Z,1028.60
2019-03-29T06:55:10.915Z,1028.64
2019-03-29T06:56:10.937Z,1028.65
2019-03-29T06:57:10.916Z,1028.62
2019-03-29T06:59:10.983Z,1028.65
2019-03-29T07:00:11.359Z,1028.63
2019-03-29T07:01:11.033Z,1028.64
2019-03-29T07:02:11.071Z,1028.65
2019-03-29T07:03:11.513Z,1028.68
2019-03-29T07:04:11.180Z,1028.70
2019-03-29T07:05:11.162Z,1028.67
2019-03-29T07:06:11.248Z,1028.59
2019-03-29T07:07:11.594Z,1028.60
2019-03-29T07:08:11.309Z,1028.64
2019-03-29T07:09:11.284Z,1028.66
2019-03-29T07:10:11.322Z,1028.66
2019-03-29T07:11:17.588Z,1028.66
2019-03-29T07:12:11.428Z,1028.67
2019-03-29T07:13:11.406Z,1028.65
2019-03-29T07:14:11.740Z,1028.61
2019-03-29T07:15:11.478Z,1028.65
2019-03-29T07:16:11.552Z,1028.62
2019-03-29T07:17:11.535Z,1028.64
2019-03-29T07:18:11.564Z,1028.62
2019-03-29T07:19:11.748Z,1028.63
2019-03-29T07:20:11.682Z,1028.66
2019-03-29T07:21:21.361Z,1028.63
2019-03-29T07:22:11.744Z,1028.60
2019-03-29T07:23:11.773Z,1028.62
2019-03-29T07:24:11.798Z,1028.64
2019-03-29T07:25:11.779Z,1028.60
2019-03-29T07:26:12.163Z,1028.62
2019-03-29T07:27:11.899Z,1028.62
2019-03-29T07:28:11.873Z,1028.63
2019-03-29T07:29:12.082Z,1028.59
2019-03-29T07:30:12.003Z,1028.62
2019-03-29T07:31:11.976Z,1028.60
2019-03-29T07:32:12.297Z,1028.62
2019-03-29T07:34:12.124Z,1028.59
2019-03-29T07:35:12.155Z,1028.56
2019-03-29T07:36:12.122Z,1028.56
2019-03-29T07:37:12.209Z,1028.58
2019-03-29T07:38:12.237Z,1028.58
2019-03-29T07:39:12.568Z,1028.59
2019-03-29T07:40:12.252Z,1028.58
2019-03-29T07:41:12.281Z,1028.57
2019-03-29T07:42:12.360Z,1028.61
2019-03-29T07:43:12.402Z,1028.60
2019-03-29T07:44:12.523Z,1028.60
2019-03-29T07:46:12.485Z,1028.57
2019-03-29T07:48:12.805Z,1028.62
2019-03-29T07:49:12.590Z,1028.59
2019-03-29T07:50:12.562Z,1028.58
2019-03-29T07:51:12.595Z,1028.57
2019-03-29T07:52:12.629Z,1028.56
2019-03-29T07:53:12.723Z,1028.58
2019-03-29T07:54:12.989Z,1028.56
2019-03-29T07:55:12.786Z,1028.54
2019-03-29T07:56:12.748Z,1028.54
2019-03-29T07:57:12.779Z,1028.54
2019-03-29T07:58:12.861Z,1028.54
2019-03-29T07:59:12.892Z,1028.54
2019-03-29T08:00:12.922Z,1028.56
2019-03-29T08:01:13.206Z,1028.51
2019-03-29T08:02:12.985Z,1028.53
2019-03-29T08:03:13.021Z,1028.50
2019-03-29T08:04:13.057Z,1028.52
2019-03-29T08:05:13.025Z,1028.51
2019-03-29T08:06:13.061Z,1028.48
2019-03-29T08:07:26.316Z,1028.48
2019-03-29T08:08:23.861Z,1028.48
2019-03-29T08:09:22.241Z,1028.50
2019-03-29T08:10:24.113Z,1028.50
2019-03-29T08:11:25.557Z,1028.55
2019-03-29T08:12:13.318Z,1028.47
2019-03-29T08:13:13.429Z,1028.53
2019-03-29T08:14:15.022Z,1028.50
2019-03-29T08:15:13.391Z,1028.50
2019-03-29T08:16:13.433Z,1028.46
2019-03-29T08:17:13.457Z,1028.46
2019-03-29T08:18:13.503Z,1028.48
2019-03-29T08:19:13.517Z,1028.44
2019-03-29T08:20:38.834Z,1028.41
2019-03-29T08:21:13.556Z,1028.44
2019-03-29T08:22:13.573Z,1028.40
2019-03-29T08:23:13.737Z,1028.39
2019-03-29T08:24:13.659Z,1028.38
2019-03-29T08:25:13.720Z,1028.37
2019-03-29T08:26:13.697Z,1028.38
2019-03-29T08:27:13.778Z,1028.36
2019-03-29T08:28:13.818Z,1028.37
2019-03-29T08:29:13.835Z,1028.35
2019-03-29T08:30:13.869Z,1028.30
2019-03-29T08:31:13.898Z,1028.32
2019-03-29T08:32:13.876Z,1028.34
2019-03-29T08:33:13.962Z,1028.29
2019-03-29T08:34:13.986Z,1028.33
2019-03-29T08:35:14.027Z,1028.31
2019-03-29T08:36:14.048Z,1028.32
2019-03-29T08:37:14.038Z,1028.31
2019-03-29T08:38:14.065Z,1028.30
2019-03-29T08:39:27.378Z,1028.29
2019-03-29T08:40:14.181Z,1028.31
2019-03-29T08:41:14.162Z,1028.34
2019-03-29T08:42:14.195Z,1028.32
2019-03-29T08:43:14.294Z,1028.33
2019-03-29T08:44:14.602Z,1028.31
2019-03-29T08:45:14.336Z,1028.28
2019-03-29T08:46:14.372Z,1028.29
2019-03-29T08:47:14.404Z,1028.27
2019-03-29T08:48:14.387Z,1028.27
2019-03-29T08:49:16.831Z,1028.27
2019-03-29T08:50:14.488Z,1028.31
2019-03-29T08:51:14.845Z,1028.25
2019-03-29T08:52:14.569Z,1028.22
2019-03-29T08:53:14.539Z,1028.25
2019-03-29T08:54:14.654Z,1028.20
2019-03-29T08:55:17.495Z,1028.20
2019-03-29T08:56:14.681Z,1028.17
2019-03-29T08:57:14.715Z,1028.17
2019-03-29T08:58:14.993Z,1028.14
2019-03-29T08:59:17.515Z,1028.15
2019-03-29T09:00:15.949Z,1028.16
2019-03-29T09:01:14.794Z,1028.12
2019-03-29T09:02:14.824Z,1028.11
2019-03-29T09:03:14.899Z,1028.09
2019-03-29T09:04:14.944Z,1028.10
2019-03-29T09:05:15.381Z,1028.08
2019-03-29T09:06:15.105Z,1028.10
2019-03-29T09:07:15.055Z,1028.11
2019-03-29T09:08:15.082Z,1028.09
2019-03-29T09:09:15.043Z,1028.06
2019-03-29T09:10:15.139Z,1028.00
2019-03-29T09:11:15.163Z,1028.02
2019-03-29T09:13:15.539Z,1028.02
2019-03-29T09:14:15.260Z,1027.99
2019-03-29T09:17:15.293Z,1027.95
2019-03-29T09:18:15.378Z,1027.93
2019-03-29T09:19:15.452Z,1027.91
2019-03-29T09:20:15.748Z,1027.92
2019-03-29T09:21:15.432Z,1027.89
2019-03-29T09:22:15.508Z,1027.89
2019-03-29T09:23:15.548Z,1027.88
2019-03-29T09:24:21.956Z,1027.88
2019-03-29T09:25:15.610Z,1027.86
2019-03-29T09:26:15.579Z,1027.85
2019-03-29T09:27:15.990Z,1027.86
2019-03-29T09:28:15.690Z,1027.86
2019-03-29T09:29:15.678Z,1027.87
2019-03-29T09:30:15.703Z,1027.84
2019-03-29T09:31:15.785Z,1027.82
2019-03-29T09:32:15.778Z,1027.84
2019-03-29T09:33:15.849Z,1027.84
2019-03-29T09:34:16.133Z,1027.82
2019-03-29T09:35:15.919Z,1027.78
2019-03-29T09:36:15.898Z,1027.79
2019-03-29T09:37:15.931Z,1027.79
2019-03-29T09:38:16.120Z,1027.76
2019-03-29T09:39:16.037Z,1027.81
2019-03-29T09:40:16.075Z,1027.78
2019-03-29T09:41:16.354Z,1027.79
2019-03-29T09:42:28.142Z,1027.76
2019-03-29T09:43:16.288Z,1027.75
2019-03-29T09:44:16.204Z,1027.74
2019-03-29T09:45:16.178Z,1027.76
2019-03-29T09:46:16.370Z,1027.73
2019-03-29T09:47:16.306Z,1027.70
2019-03-29T09:48:16.276Z,1027.71
2019-03-29T09:49:16.370Z,1027.69
2019-03-29T09:50:16.338Z,1027.70
2019-03-29T09:51:16.436Z,1027.66
2019-03-29T09:52:16.417Z,1027.62
2019-03-29T09:53:16.454Z,1027.65
2019-03-29T09:54:20.121Z,1027.60
2019-03-29T09:55:18.946Z,1027.64
2019-03-29T09:56:16.532Z,1027.63
2019-03-29T09:57:16.616Z,1027.62
2019-03-29T09:58:17.088Z,1027.57
2019-03-29T09:59:16.762Z,1027.57
2019-03-29T10:00:20.798Z,1027.58
2019-03-29T10:01:20.635Z,1027.55
2019-03-29T10:02:16.781Z,1027.51
2019-03-29T10:03:16.756Z,1027.53
2019-03-29T10:04:16.794Z,1027.50
2019-03-29T10:06:16.910Z,1027.51
2019-03-29T10:07:17.241Z,1027.44
2019-03-29T10:08:16.913Z,1027.45
2019-03-29T10:09:16.954Z,1027.44
2019-03-29T10:10:16.982Z,1027.44
2019-03-29T10:11:17.063Z,1027.43
2019-03-29T10:12:17.101Z,1027.41
2019-03-29T10:13:17.431Z,1027.43
2019-03-29T10:14:17.106Z,1027.37
2019-03-29T10:15:17.171Z,1027.39
2019-03-29T10:16:17.173Z,1027.35
2019-03-29T10:17:17.263Z,1027.30
2019-03-29T10:18:17.243Z,1027.31
2019-03-29T10:19:17.621Z,1027.28
2019-03-29T10:20:17.305Z,1027.26
2019-03-29T10:21:17.727Z,1027.25
2019-03-29T10:22:17.420Z,1027.25
2019-03-29T10:23:17.466Z,1027.25
2019-03-29T10:24:17.497Z,1027.26
2019-03-29T10:25:19.523Z,1027.21
2019-03-29T10:26:17.787Z,1027.19
2019-03-29T10:27:19.192Z,1027.19
2019-03-29T10:28:17.639Z,1027.18
2019-03-29T10:29:17.642Z,1027.14
2019-03-29T10:30:17.638Z,1027.14
2019-03-29T10:31:31.043Z,1027.10
2019-03-29T10:32:17.678Z,1027.08
2019-03-29T10:33:18.067Z,1027.06
2019-03-29T10:34:17.766Z,1027.08
2019-03-29T10:35:17.776Z,1027.05
2019-03-29T10:36:17.957Z,1027.02
2019-03-29T10:37:17.930Z,1027.03
2019-03-29T10:38:18.617Z,1027.02
2019-03-29T10:39:17.963Z,1026.99
2019-03-29T10:40:21.588Z,1026.97
2019-03-29T10:41:17.984Z,1026.94
2019-03-29T10:42:18.009Z,1026.95
2019-03-29T10:43:18.083Z,1026.95
2019-03-29T10:44:18.278Z,1026.89
2019-03-29T10:45:18.102Z,1026.89
2019-03-29T10:46:18.134Z,1026.88
2019-03-29T10:47:18.516Z,1026.88
2019-03-29T10:48:18.194Z,1026.84
2019-03-29T10:49:18.282Z,1026.90
2019-03-29T10:50:18.310Z,1026.82
2019-03-29T10:51:18.348Z,1026.80
2019-03-29T10:52:18.578Z,1026.82
2019-03-29T10:53:18.359Z,1026.79
2019-03-29T10:54:18.743Z,1026.77
2019-03-29T10:55:18.425Z,1026.82
2019-03-29T10:56:32.784Z,1026.81
2019-03-29T10:57:18.544Z,1026.81
2019-03-29T10:58:18.514Z,1026.79
2019-03-29T10:59:27.219Z,1026.79
2019-03-29T11:00:21.437Z,1026.75
2019-03-29T11:01:18.968Z,1026.74
2019-03-29T11:02:18.643Z,1026.75
2019-03-29T11:03:18.740Z,1026.74
2019-03-29T11:04:18.813Z,1026.71
2019-03-29T11:05:18.776Z,1026.71
2019-03-29T11:06:18.902Z,1026.64
2019-03-29T11:07:18.930Z,1026.63
2019-03-29T11:08:19.143Z,1026.65
2019-03-29T11:09:18.875Z,1026.55
2019-03-29T11:10:19.009Z,1026.57
2019-03-29T11:11:19.178Z,1026.56
2019-03-29T11:12:19.017Z,1026.57
2019-03-29T11:13:19.011Z,1026.57
2019-03-29T11:14:19.085Z,1026.58
2019-03-29T11:15:19.419Z,1026.54
2019-03-29T11:16:19.144Z,1026.55
2019-03-29T11:17:19.130Z,1026.53
2019-03-29T11:18:19.161Z,1026.49
2019-03-29T11:19:19.195Z,1026.48
2019-03-29T11:20:19.245Z,1026.47
2019-03-29T11:21:19.327Z,1026.45
2019-03-29T11:22:19.597Z,1026.43
2019-03-29T11:23:19.380Z,1026.46
2019-03-29T11:24:19.417Z,1026.39
2019-03-29T11:25:19.393Z,1026.40
2019-03-29T11:26:19.475Z,1026.38
2019-03-29T11:27:22.462Z,1026.37
2019-03-29T11:28:19.535Z,1026.36
2019-03-29T11:29:19.823Z,1026.31
2019-03-29T11:30:19.558Z,1026.31
2019-03-29T11:31:19.630Z,1026.34
2019-03-29T11:32:19.772Z,1026.29
2019-03-29T11:33:19.699Z,1026.28
2019-03-29T11:34:21.064Z,1026.26
2019-03-29T11:35:19.865Z,1026.27
2019-03-29T11:36:20.097Z,1026.24
2019-03-29T11:37:19.927Z,1026.22
2019-03-29T11:38:19.872Z,1026.21
2019-03-29T11:39:19.893Z,1026.19
2019-03-29T11:40:19.876Z,1026.17
2019-03-29T11:41:19.920Z,1026.13
2019-03-29T11:42:19.936Z,1026.11
2019-03-29T11:43:26.621Z,1026.11
2019-03-29T11:44:20.059Z,1026.09
2019-03-29T11:45:20.083Z,1026.02
2019-03-29T11:46:20.131Z,1026.01
2019-03-29T11:47:20.153Z,1025.97
2019-03-29T11:48:20.197Z,1025.96
2019-03-29T11:49:20.469Z,1025.95
2019-03-29T11:50:20.195Z,1025.88
2019-03-29T11:51:20.266Z,1025.91
2019-03-29T11:52:20.310Z,1025.90
2019-03-29T11:53:20.304Z,1025.85
2019-03-29T11:54:20.383Z,1025.83
2019-03-29T11:55:20.661Z,1025.82
2019-03-29T11:56:20.446Z,1025.84
2019-03-29T11:57:20.435Z,1025.83
2019-03-29T11:58:20.455Z,1025.80
2019-03-29T11:59:20.498Z,1025.82
2019-03-29T12:00:20.575Z,1025.82
2019-03-29T12:01:20.926Z,1025.83
2019-03-29T12:02:31.156Z,1025.79
2019-03-29T12:03:20.771Z,1025.80
2019-03-29T12:04:20.648Z,1025.82
2019-03-29T12:05:20.736Z,1025.78
2019-03-29T12:06:20.714Z,1025.76
2019-03-29T12:07:20.814Z,1025.79
2019-03-29T12:08:21.088Z,1025.77
2019-03-29T12:09:20.833Z,1025.76
2019-03-29T12:10:20.917Z,1025.76
2019-03-29T12:11:20.933Z,1025.77
2019-03-29T12:12:20.982Z,1025.73
2019-03-29T12:13:20.958Z,1025.69
2019-03-29T12:14:21.081Z,1025.71
2019-03-29T12:15:21.329Z,1025.70
2019-03-29T12:16:21.047Z,1025.69
2019-03-29T12:17:21.133Z,1025.65
2019-03-29T12:18:21.263Z,1025.64
2019-03-29T12:19:21.206Z,1025.61
2019-03-29T12:20:21.181Z,1025.60
2019-03-29T12:21:21.207Z,1025.57
2019-03-29T12:22:21.597Z,1025.60
2019-03-29T12:23:21.332Z,1025.60
2019-03-29T12:24:21.323Z,1025.58
2019-03-29T12:25:21.392Z,1025.56